Time;durP1;ratioP1;P1;durP2;ratioP2;P2;SDS_P1;SDS_P2;PMS_P1;PMS_P2;Temp;Humidity;BMP_temperature;BMP_pressure;BME280_temperature;BME280_humidity;BME280_pressure;Samples;Min_cycle;Max_cycle;Signal;HPM_P1;HPM_P2
2022/04/14 00:00:41;;;;;;;3.30;1.73;;;;;;;;;;4963617;28;20052;-87
2022/04/14 00:03:07;;;;;;;4.57;1.83;;;;;;;;;;4946823;28;20106;-90
2022/04/14 00:05:32;;;;;;;3.90;1.73;;;;;;;;;;4946201;28;20456;-86
2022/04/14 00:07:57;;;;;;;1.75;1.48;;;;;;;;;;4957210;28;20467;-87
2022/04/14 00:10:23;;;;;;;1.80;1.15;;;;;;;;;;4962974;28;20754;-87
2022/04/14 00:12:48;;;;;;;3.33;1.90;;;;;;;;;;4984254;28;20039;-88
2022/04/14 00:15:14;;;;;;;3.70;1.58;;;;;;;;;;4981577;28;20382;-86
2022/04/14 00:17:39;;;;;;;6.30;2.30;;;;;;;;;;4966493;28;20073;-88
2022/04/14 00:20:07;;;;;;;3.45;1.80;;;;;;;;;;4986729;28;20030;-89
2022/04/14 00:22:33;;;;;;;2.50;1.48;;;;;;;;;;4973950;28;20106;-87
2022/04/14 00:24:59;;;;;;;2.78;1.92;;;;;;;;;;4961275;28;20047;-85
2022/04/14 00:27:24;;;;;;;4.13;1.77;;;;;;;;;;4980604;28;20030;-89
2022/04/14 00:29:50;;;;;;;3.28;2.00;;;;;;;;;;4989914;28;20038;-84
2022/04/14 00:32:16;;;;;;;2.75;1.90;;;;;;;;;;4970268;28;20045;-84
2022/04/14 00:34:42;;;;;;;3.63;1.90;;;;;;;;;;4964487;28;20558;-83
2022/04/14 00:37:09;;;;;;;2.58;1.90;;;;;;;;;;4967319;28;20170;-87
2022/04/14 00:39:35;;;;;;;3.60;1.70;;;;;;;;;;4984937;28;20033;-87
2022/04/14 00:42:01;;;;;;;4.75;2.28;;;;;;;;;;4967656;28;20034;-84
2022/04/14 00:44:27;;;;;;;4.88;2.53;;;;;;;;;;4983975;28;20415;-84
2022/04/14 00:46:52;;;;;;;5.05;2.60;;;;;;;;;;4969840;28;20070;-86
2022/04/14 00:49:19;;;;;;;2.47;1.90;;;;;;;;;;4984452;28;20038;-88
2022/04/14 00:51:45;;;;;;;4.38;1.83;;;;;;;;;;4973648;28;20030;-87
2022/04/14 00:54:10;;;;;;;3.20;1.70;;;;;;;;;;4966257;28;20030;-85
2022/04/14 00:56:36;;;;;;;3.30;1.75;;;;;;;;;;4980289;28;20042;-84
2022/04/14 00:59:02;;;;;;;5.00;2.42;;;;;;;;;;4980363;28;20049;-86
2022/04/14 01:01:27;;;;;;;3.95;2.60;;;;;;;;;;4982430;28;20039;-86
2022/04/14 01:03:53;;;;;;;2.90;1.73;;;;;;;;;;4981015;28;20059;-85
2022/04/14 01:06:20;;;;;;;3.53;2.28;;;;;;;;;;4969742;28;20037;-84
2022/04/14 01:09:32;;;;;;;7.40;3.33;;;;;;;;;;4989418;28;20618;-87
2022/04/14 01:11:34;;;;;;;6.55;2.88;;;;;;;;;;4973242;28;20046;-86
2022/04/14 01:13:59;;;;;;;12.77;4.53;;;;;;;;;;4974675;28;20066;-89
2022/04/14 01:16:25;;;;;;;4.75;2.65;;;;;;;;;;4969836;28;20074;-85
2022/04/14 01:18:50;;;;;;;4.85;2.33;;;;;;;;;;4973973;28;20062;-86
2022/04/14 01:21:17;;;;;;;4.25;2.03;;;;;;;;;;4971696;28;20077;-87
2022/04/14 01:23:44;;;;;;;3.55;2.13;;;;;;;;;;4980817;28;20035;-89
2022/04/14 01:26:13;;;;;;;5.35;2.10;;;;;;;;;;4984572;28;20038;-85
2022/04/14 01:28:38;;;;;;;2.55;1.80;;;;;;;;;;4965669;28;20027;-86
2022/04/14 01:31:04;;;;;;;4.15;2.63;;;;;;;;;;4980724;28;20087;-86
2022/04/14 01:33:29;;;;;;;2.55;1.65;;;;;;;;;;4961816;28;20479;-85
2022/04/14 01:35:55;;;;;;;5.80;2.05;;;;;;;;;;4967510;28;20069;-87
2022/04/14 01:38:21;;;;;;;3.08;1.83;;;;;;;;;;4963506;28;20034;-88
2022/04/14 01:40:46;;;;;;;3.88;2.03;;;;;;;;;;4978231;28;20050;-89
2022/04/14 01:43:12;;;;;;;2.55;1.73;;;;;;;;;;4984792;28;20092;-87
2022/04/14 01:45:37;;;;;;;1.60;1.40;;;;;;;;;;4989392;28;20088;-85
2022/04/14 01:48:03;;;;;;;2.67;1.85;;;;;;;;;;4981142;28;20041;-88
2022/04/14 01:50:28;;;;;;;3.30;1.92;;;;;;;;;;4966207;28;20040;-86
2022/04/14 01:52:54;;;;;;;3.92;1.45;;;;;;;;;;4970945;28;20125;-86
2022/04/14 01:55:19;;;;;;;3.15;1.67;;;;;;;;;;4986088;28;20035;-89
2022/04/14 01:57:46;;;;;;;2.35;1.50;;;;;;;;;;4972814;28;20045;-86
2022/04/14 02:00:14;;;;;;;3.28;2.25;;;;;;;;;;4970625;28;20897;-90
2022/04/14 02:02:40;;;;;;;3.30;1.73;;;;;;;;;;4966026;28;20047;-86
2022/04/14 02:05:06;;;;;;;4.50;1.83;;;;;;;;;;4970989;28;20046;-89
2022/04/14 02:07:31;;;;;;;3.10;1.85;;;;;;;;;;4970706;28;20498;-85
2022/04/14 02:09:57;;;;;;;2.50;1.48;;;;;;;;;;4975749;28;20046;-86
2022/04/14 02:12:24;;;;;;;3.45;2.13;;;;;;;;;;4985172;28;20045;-86
2022/04/14 02:14:50;;;;;;;3.17;2.22;;;;;;;;;;4969952;28;20121;-86
2022/04/14 02:17:15;;;;;;;3.85;1.58;;;;;;;;;;4983827;28;20113;-87
2022/04/14 02:19:42;;;;;;;3.30;1.55;;;;;;;;;;4964292;28;20039;-86
2022/04/14 02:22:07;;;;;;;3.40;1.50;;;;;;;;;;4966664;28;20558;-88
2022/04/14 02:24:33;;;;;;;2.63;1.50;;;;;;;;;;4984116;28;20102;-87
2022/04/14 02:26:58;;;;;;;5.30;2.35;;;;;;;;;;4988178;28;20037;-86
2022/04/14 02:29:24;;;;;;;3.95;2.13;;;;;;;;;;4968862;28;20037;-87
2022/04/14 02:31:51;;;;;;;3.80;2.58;;;;;;;;;;4964746;28;20468;-88
2022/04/14 02:34:17;;;;;;;3.25;2.05;;;;;;;;;;4969308;28;20034;-90
2022/04/14 02:36:43;;;;;;;3.13;2.20;;;;;;;;;;4969936;28;20103;-86
2022/04/14 02:39:09;;;;;;;4.00;1.92;;;;;;;;;;4972688;28;20030;-88
2022/04/14 02:41:35;;;;;;;6.50;1.90;;;;;;;;;;4967702;28;20031;-87
2022/04/14 02:44:00;;;;;;;2.67;1.88;;;;;;;;;;4980194;28;20162;-86
2022/04/14 02:46:26;;;;;;;3.17;1.67;;;;;;;;;;4973174;28;20038;-87
2022/04/14 02:48:51;;;;;;;2.40;1.92;;;;;;;;;;4969622;28;20027;-88
2022/04/14 02:51:17;;;;;;;2.47;1.52;;;;;;;;;;4969228;28;20483;-85
2022/04/14 02:53:42;;;;;;;2.80;1.40;;;;;;;;;;4968455;28;20036;-88
2022/04/14 02:56:12;;;;;;;2.10;1.42;;;;;;;;;;4966891;28;20057;-89
2022/04/14 02:58:37;;;;;;;1.95;1.50;;;;;;;;;;4981529;28;20034;-89
2022/04/14 03:01:04;;;;;;;3.50;1.67;;;;;;;;;;4994513;28;20046;-86
2022/04/14 03:03:30;;;;;;;2.30;1.60;;;;;;;;;;4978228;28;20042;-88
2022/04/14 03:05:55;;;;;;;2.60;1.67;;;;;;;;;;4963809;28;20041;-86
2022/04/14 03:08:21;;;;;;;4.10;2.45;;;;;;;;;;4982462;28;20082;-88
2022/04/14 03:10:47;;;;;;;3.67;2.17;;;;;;;;;;4968457;28;20034;-87
2022/04/14 03:13:12;;;;;;;2.03;1.60;;;;;;;;;;4963157;28;20035;-85
2022/04/14 03:15:37;;;;;;;2.95;2.00;;;;;;;;;;4976275;28;20077;-86
2022/04/14 03:18:05;;;;;;;4.35;2.75;;;;;;;;;;4983576;28;20455;-86
2022/04/14 03:20:31;;;;;;;5.18;3.15;;;;;;;;;;4986152;28;20360;-90
2022/04/14 03:22:56;;;;;;;3.55;2.65;;;;;;;;;;4971605;28;20034;-86
2022/04/14 03:25:22;;;;;;;5.32;2.75;;;;;;;;;;4973665;28;20049;-89
2022/04/14 03:27:47;;;;;;;4.22;2.50;;;;;;;;;;4971372;28;20042;-87
2022/04/14 03:30:13;;;;;;;4.18;2.72;;;;;;;;;;4970279;28;20045;-88
2022/04/14 03:32:40;;;;;;;4.78;2.78;;;;;;;;;;4965832;28;20129;-85
2022/04/14 03:35:07;;;;;;;4.75;2.63;;;;;;;;;;4969776;28;20043;-86
2022/04/14 03:37:33;;;;;;;5.30;2.55;;;;;;;;;;4973542;28;20113;-85
2022/04/14 03:39:59;;;;;;;4.18;2.25;;;;;;;;;;4982623;28;20038;-85
2022/04/14 03:42:28;;;;;;;4.20;2.15;;;;;;;;;;4965190;28;20049;-89
2022/04/14 03:44:53;;;;;;;2.63;1.85;;;;;;;;;;4965459;28;20122;-88
2022/04/14 03:47:19;;;;;;;7.25;4.35;;;;;;;;;;4989346;28;20065;-87
2022/04/14 03:49:44;;;;;;;6.32;2.47;;;;;;;;;;4973584;28;20046;-85
2022/04/14 03:52:10;;;;;;;6.13;3.00;;;;;;;;;;4981920;28;20039;-87
2022/04/14 03:54:35;;;;;;;5.45;2.72;;;;;;;;;;4971103;28;20061;-86
2022/04/14 03:57:01;;;;;;;4.95;2.40;;;;;;;;;;4968182;28;20038;-89
2022/04/14 03:59:26;;;;;;;4.18;2.22;;;;;;;;;;4966714;28;20034;-86
2022/04/14 04:01:52;;;;;;;3.22;1.92;;;;;;;;;;4966394;28;20038;-87
2022/04/14 04:04:17;;;;;;;3.33;2.08;;;;;;;;;;4989734;28;20035;-87
2022/04/14 04:06:43;;;;;;;4.05;2.28;;;;;;;;;;4981462;28;20061;-85
2022/04/14 04:09:09;;;;;;;2.45;1.92;;;;;;;;;;4983058;28;20034;-87
2022/04/14 04:11:34;;;;;;;10.88;2.47;;;;;;;;;;4967972;28;20051;-85
2022/04/14 04:13:59;;;;;;;5.72;2.28;;;;;;;;;;4966827;28;20034;-86
2022/04/14 04:16:25;;;;;;;2.80;1.95;;;;;;;;;;4987147;28;20093;-88
2022/04/14 04:18:50;;;;;;;8.85;2.20;;;;;;;;;;4983718;28;20034;-85
2022/04/14 04:21:16;;;;;;;2.45;1.80;;;;;;;;;;4986141;28;20038;-87
2022/04/14 04:23:41;;;;;;;3.70;2.38;;;;;;;;;;4984868;28;20360;-84
2022/04/14 04:26:07;;;;;;;4.50;2.33;;;;;;;;;;4966800;28;20095;-85
2022/04/14 04:28:32;;;;;;;5.10;2.92;;;;;;;;;;4973900;28;20034;-84
2022/04/14 04:30:58;;;;;;;3.38;2.50;;;;;;;;;;4986431;28;20084;-88
2022/04/14 04:33:23;;;;;;;4.72;2.63;;;;;;;;;;4972058;28;20501;-87
2022/04/14 04:35:52;;;;;;;5.40;3.30;;;;;;;;;;4978362;28;20045;-84
2022/04/14 04:38:18;;;;;;;7.70;4.07;;;;;;;;;;4991171;28;20030;-83
2022/04/14 04:40:43;;;;;;;4.97;3.50;;;;;;;;;;4969565;28;20042;-86
2022/04/14 04:43:09;;;;;;;5.80;3.58;;;;;;;;;;4987649;28;20034;-84
2022/04/14 04:45:35;;;;;;;5.97;3.05;;;;;;;;;;4966629;28;20557;-80
2022/04/14 04:48:02;;;;;;;3.85;2.50;;;;;;;;;;4982288;28;20094;-83
2022/04/14 04:50:28;;;;;;;5.75;3.88;;;;;;;;;;4965706;28;20073;-89
2022/04/14 04:52:54;;;;;;;5.70;2.70;;;;;;;;;;4969353;28;20550;-83
2022/04/14 04:55:19;;;;;;;5.07;3.00;;;;;;;;;;4968613;28;20039;-86
2022/04/14 04:57:45;;;;;;;5.53;3.15;;;;;;;;;;4981349;28;20114;-81
2022/04/14 05:00:11;;;;;;;6.45;3.28;;;;;;;;;;4983350;28;20056;-85
2022/04/14 05:02:36;;;;;;;12.43;6.93;;;;;;;;;;4982732;28;20034;-82
2022/04/14 05:05:03;;;;;;;10.60;6.40;;;;;;;;;;4980759;28;20049;-82
2022/04/14 05:07:29;;;;;;;15.15;6.88;;;;;;;;;;4965416;28;20128;-87
2022/04/14 05:09:54;;;;;;;13.85;6.80;;;;;;;;;;4984225;28;20063;-87
2022/04/14 05:12:20;;;;;;;10.32;6.53;;;;;;;;;;4968337;28;20117;-85
2022/04/14 05:14:45;;;;;;;8.75;5.20;;;;;;;;;;4979425;28;20060;-88
2022/04/14 05:17:10;;;;;;;12.20;6.50;;;;;;;;;;4986013;28;20022;-87
2022/04/14 05:19:36;;;;;;;12.25;7.20;;;;;;;;;;4991155;28;20081;-89
2022/04/14 05:22:01;;;;;;;10.25;6.13;;;;;;;;;;4969891;28;20031;-89
2022/04/14 05:24:29;;;;;;;10.57;6.90;;;;;;;;;;4974229;28;20034;-88
2022/04/14 05:26:55;;;;;;;8.93;7.13;;;;;;;;;;4969487;28;20041;-87
2022/04/14 05:29:20;;;;;;;10.43;6.32;;;;;;;;;;4978675;28;20031;-85
2022/04/14 05:31:46;;;;;;;13.30;6.40;;;;;;;;;;4983346;28;20046;-88
2022/04/14 05:34:11;;;;;;;8.65;6.47;;;;;;;;;;4968679;28;20088;-87
2022/04/14 05:36:36;;;;;;;10.60;6.25;;;;;;;;;;4985902;28;20097;-85
2022/04/14 05:39:02;;;;;;;8.57;5.70;;;;;;;;;;4981490;28;20125;-88
2022/04/14 05:41:28;;;;;;;10.15;6.10;;;;;;;;;;4967023;28;20034;-86
2022/04/14 05:43:53;;;;;;;9.00;5.97;;;;;;;;;;4969250;28;20049;-88
2022/04/14 05:46:18;;;;;;;8.25;5.28;;;;;;;;;;4988410;28;20034;-87
2022/04/14 05:48:44;;;;;;;13.07;5.22;;;;;;;;;;4974789;28;20031;-89
2022/04/14 05:51:09;;;;;;;8.43;5.75;;;;;;;;;;4968040;28;20038;-87
2022/04/14 05:53:37;;;;;;;8.73;5.57;;;;;;;;;;4961351;28;20062;-87
2022/04/14 05:56:03;;;;;;;8.98;5.70;;;;;;;;;;4965757;28;20046;-87
2022/04/14 05:58:29;;;;;;;7.18;5.43;;;;;;;;;;4972780;28;20034;-89
2022/04/14 06:00:54;;;;;;;17.85;10.32;;;;;;;;;;4967718;28;20042;-88
2022/04/14 06:03:20;;;;;;;15.65;9.70;;;;;;;;;;4968359;28;20034;-86
2022/04/14 06:05:45;;;;;;;16.15;7.82;;;;;;;;;;4980796;28;20039;-87
2022/04/14 06:08:11;;;;;;;16.27;9.05;;;;;;;;;;4970644;28;20439;-88
2022/04/14 06:10:36;;;;;;;17.33;8.15;;;;;;;;;;4985750;28;20035;-87
2022/04/14 06:13:03;;;;;;;12.38;7.05;;;;;;;;;;4968339;28;20026;-86
2022/04/14 06:15:30;;;;;;;8.10;5.88;;;;;;;;;;4972403;28;20034;-87
2022/04/14 06:17:55;;;;;;;21.58;12.57;;;;;;;;;;4962561;28;20046;-87
2022/04/14 06:20:21;;;;;;;27.65;13.18;;;;;;;;;;4968863;28;20038;-88
2022/04/14 06:22:47;;;;;;;19.20;9.63;;;;;;;;;;4965117;28;20503;-86
2022/04/14 06:25:16;;;;;;;22.05;10.48;;;;;;;;;;4977259;28;20232;-87
2022/04/14 06:27:43;;;;;;;40.90;23.88;;;;;;;;;;4975717;28;20121;-88
2022/04/14 06:30:10;;;;;;;12.10;9.30;;;;;;;;;;4967383;28;20098;-87
2022/04/14 06:32:37;;;;;;;10.38;6.78;;;;;;;;;;4969494;28;20035;-88
2022/04/14 06:35:07;;;;;;;14.40;6.53;;;;;;;;;;4963825;28;20390;-87
2022/04/14 06:37:35;;;;;;;9.45;6.10;;;;;;;;;;4980640;28;20034;-85
2022/04/14 06:40:02;;;;;;;12.25;7.10;;;;;;;;;;4977928;28;20498;-88
2022/04/14 06:42:34;;;;;;;16.02;7.70;;;;;;;;;;4967244;28;20034;-85
2022/04/14 06:45:00;;;;;;;12.90;7.78;;;;;;;;;;4970319;28;20055;-87
2022/04/14 06:47:26;;;;;;;12.07;6.85;;;;;;;;;;4966095;28;20494;-87
2022/04/14 06:49:52;;;;;;;14.00;9.75;;;;;;;;;;4970739;28;20038;-86
2022/04/14 06:52:18;;;;;;;14.18;7.82;;;;;;;;;;4992183;28;20026;-88
2022/04/14 06:54:43;;;;;;;12.30;7.30;;;;;;;;;;4973845;28;20057;-87
2022/04/14 06:57:09;;;;;;;14.00;6.35;;;;;;;;;;4986279;28;20117;-88
2022/04/14 06:59:34;;;;;;;10.50;6.53;;;;;;;;;;4971696;28;20065;-87
2022/04/14 07:02:00;;;;;;;10.18;6.93;;;;;;;;;;4967465;28;20038;-86
2022/04/14 07:04:27;;;;;;;9.32;6.43;;;;;;;;;;4981168;28;20459;-86
2022/04/14 07:06:52;;;;;;;9.05;5.78;;;;;;;;;;4974777;28;20046;-86
2022/04/14 07:09:18;;;;;;;11.43;6.70;;;;;;;;;;4972796;28;20501;-87
2022/04/14 07:11:43;;;;;;;7.22;5.68;;;;;;;;;;4968043;28;20467;-87
2022/04/14 07:14:09;;;;;;;9.05;5.40;;;;;;;;;;4963920;28;20030;-88
2022/04/14 07:16:34;;;;;;;10.20;5.95;;;;;;;;;;4969898;28;20387;-88
2022/04/14 07:19:00;;;;;;;7.63;5.13;;;;;;;;;;4967849;28;20379;-84
2022/04/14 07:21:25;;;;;;;8.40;5.82;;;;;;;;;;4989911;28;20451;-85
2022/04/14 07:23:51;;;;;;;11.15;6.07;;;;;;;;;;4970830;28;20042;-87
2022/04/14 07:26:17;;;;;;;12.38;6.00;;;;;;;;;;4972062;28;20159;-86
2022/04/14 07:28:42;;;;;;;10.63;6.30;;;;;;;;;;4975631;28;20030;-87
2022/04/14 07:31:08;;;;;;;8.85;5.45;;;;;;;;;;4975204;28;20038;-86
2022/04/14 07:33:34;;;;;;;8.82;5.32;;;;;;;;;;4971944;28;20117;-89
2022/04/14 07:36:00;;;;;;;8.50;5.38;;;;;;;;;;4966295;28;20045;-86
2022/04/14 07:38:25;;;;;;;12.88;6.00;;;;;;;;;;4983966;28;20070;-88
2022/04/14 07:40:51;;;;;;;8.02;5.65;;;;;;;;;;4965905;28;20034;-88
2022/04/14 07:43:16;;;;;;;9.73;5.80;;;;;;;;;;4986135;28;20034;-88
2022/04/14 07:45:45;;;;;;;14.30;5.20;;;;;;;;;;4968646;28;20559;-88
2022/04/14 07:48:11;;;;;;;7.53;5.40;;;;;;;;;;4965472;28;20045;-85
2022/04/14 07:50:36;;;;;;;6.30;4.78;;;;;;;;;;4972529;28;20276;-85
2022/04/14 07:53:02;;;;;;;8.25;5.45;;;;;;;;;;4967128;28;20110;-88
2022/04/14 07:55:29;;;;;;;10.68;4.93;;;;;;;;;;4967220;28;20058;-86
2022/04/14 07:57:56;;;;;;;6.47;4.60;;;;;;;;;;4964087;28;20097;-84
2022/04/14 08:00:24;;;;;;;7.60;4.72;;;;;;;;;;4979842;28;20034;-88
2022/04/14 08:02:56;;;;;;;9.95;4.97;;;;;;;;;;4971895;28;20066;-84
2022/04/14 08:05:44;;;;;;;8.38;4.53;;;;;;;;;;4982878;28;20719;-87
2022/04/14 08:08:15;;;;;;;7.95;4.43;;;;;;;;;;4988525;28;20511;-84
2022/04/14 08:10:46;;;;;;;7.15;3.83;;;;;;;;;;4986182;28;20041;-85
2022/04/14 08:13:12;;;;;;;5.63;4.22;;;;;;;;;;4967846;28;20390;-85
2022/04/14 08:15:39;;;;;;;7.47;5.15;;;;;;;;;;4965518;28;20042;-87
2022/04/14 08:18:08;;;;;;;7.10;4.35;;;;;;;;;;4985158;28;20475;-88
2022/04/14 08:20:35;;;;;;;9.90;4.90;;;;;;;;;;4969766;28;20035;-86
2022/04/14 08:23:02;;;;;;;8.30;4.97;;;;;;;;;;4964108;28;20120;-87
2022/04/14 08:25:30;;;;;;;7.13;4.95;;;;;;;;;;4985621;28;20082;-85
2022/04/14 08:27:58;;;;;;;8.57;4.75;;;;;;;;;;4966596;28;20026;-88
2022/04/14 08:30:25;;;;;;;7.05;4.28;;;;;;;;;;4971103;28;20116;-87
2022/04/14 08:32:52;;;;;;;5.28;4.03;;;;;;;;;;4983455;28;20498;-88
2022/04/14 08:35:19;;;;;;;6.25;4.53;;;;;;;;;;4980188;28;20063;-87
2022/04/14 08:37:44;;;;;;;7.82;5.00;;;;;;;;;;4976913;28;20505;-86
2022/04/14 08:40:14;;;;;;;7.97;4.35;;;;;;;;;;4982671;28;20117;-85
2022/04/14 08:43:03;;;;;;;11.50;5.93;;;;;;;;;;4968341;28;20085;-86
2022/04/14 08:45:32;;;;;;;11.77;8.88;;;;;;;;;;4981231;28;20038;-85
2022/04/14 08:48:03;;;;;;;11.00;5.53;;;;;;;;;;4969450;28;20132;-85
2022/04/14 08:50:31;;;;;;;8.23;5.63;;;;;;;;;;4962360;28;20037;-85
2022/04/14 08:52:57;;;;;;;10.73;4.97;;;;;;;;;;4982244;28;20504;-85
2022/04/14 08:55:23;;;;;;;13.00;6.68;;;;;;;;;;4965301;28;20057;-85
2022/04/14 08:57:49;;;;;;;14.40;8.50;;;;;;;;;;4969078;28;20034;-85
2022/04/14 09:00:16;;;;;;;11.07;6.15;;;;;;;;;;4987588;28;20034;-87
2022/04/14 09:02:45;;;;;;;10.38;5.43;;;;;;;;;;4988067;28;20109;-85
2022/04/14 09:05:16;;;;;;;11.73;6.43;;;;;;;;;;4969483;28;20065;-83
2022/04/14 09:07:42;;;;;;;9.95;5.88;;;;;;;;;;4952894;28;20491;-84
2022/04/14 09:10:08;;;;;;;11.75;6.63;;;;;;;;;;4961459;28;20126;-84
2022/04/14 09:12:37;;;;;;;15.13;8.13;;;;;;;;;;4966447;28;20038;-87
2022/04/14 09:15:04;;;;;;;14.68;7.93;;;;;;;;;;4966383;28;20101;-84
2022/04/14 09:17:30;;;;;;;11.75;6.80;;;;;;;;;;4950211;28;20035;-84
2022/04/14 09:19:55;;;;;;;13.02;7.05;;;;;;;;;;4964586;28;20106;-88
2022/04/14 09:22:26;;;;;;;12.75;7.07;;;;;;;;;;4952993;28;20355;-87
2022/04/14 09:24:57;;;;;;;16.38;8.73;;;;;;;;;;4963806;28;20035;-88
2022/04/14 09:27:41;;;;;;;14.60;6.68;;;;;;;;;;4950983;28;20059;-85
2022/04/14 09:30:19;;;;;;;10.13;5.53;;;;;;;;;;4947393;28;20085;-85
2022/04/14 09:32:55;;;;;;;10.38;6.30;;;;;;;;;;4950769;28;20130;-85
2022/04/14 09:35:25;;;;;;;11.57;6.68;;;;;;;;;;4949369;29;20043;-87
2022/04/14 09:38:10;;;;;;;11.98;5.38;;;;;;;;;;4952126;28;20047;-85
2022/04/14 09:40:39;;;;;;;10.88;5.55;;;;;;;;;;4963294;28;20031;-85
2022/04/14 09:43:05;;;;;;;9.32;5.43;;;;;;;;;;4944933;28;20038;-85
2022/04/14 09:45:33;;;;;;;7.43;4.57;;;;;;;;;;4946806;28;20039;-84
2022/04/14 09:48:13;;;;;;;34.15;16.90;;;;;;;;;;4947522;29;20042;-83
2022/04/14 09:50:44;;;;;;;;;;;;;;;;;;4948458;28;20035;-84
2022/04/14 09:53:18;;;;;;;10.60;6.20;;;;;;;;;;4946601;28;19941;-84
2022/04/14 09:55:50;;;;;;;8.10;5.15;;;;;;;;;;4949604;28;20050;-83
2022/04/14 09:58:20;;;;;;;16.75;8.32;;;;;;;;;;4947935;28;20182;-82
2022/04/14 10:00:46;;;;;;;10.70;4.55;;;;;;;;;;4942600;28;20374;-84
2022/04/14 10:03:28;;;;;;;19.65;8.73;;;;;;;;;;4960690;28;20038;-86
2022/04/14 10:05:56;;;;;;;11.30;5.78;;;;;;;;;;4951014;28;20035;-84
2022/04/14 10:08:25;;;;;;;11.38;6.07;;;;;;;;;;4968418;28;20680;-86
2022/04/14 10:11:08;;;;;;;9.43;5.07;;;;;;;;;;4974486;28;20053;-85
2022/04/14 10:13:40;;;;;;;7.97;3.80;;;;;;;;;;4971955;28;20078;-85
2022/04/14 10:16:09;;;;;;;7.75;4.10;;;;;;;;;;4983159;28;20030;-83
2022/04/14 10:18:35;;;;;;;8.98;4.25;;;;;;;;;;4988703;28;20126;-84
2022/04/14 10:21:01;;;;;;;5.22;4.00;;;;;;;;;;4987758;28;20050;-85
2022/04/14 10:23:27;;;;;;;7.07;4.10;;;;;;;;;;4985935;28;20042;-83
2022/04/14 10:25:54;;;;;;;5.47;3.42;;;;;;;;;;4970865;28;20035;-83
2022/04/14 10:28:20;;;;;;;4.75;2.70;;;;;;;;;;4976529;28;20030;-83
2022/04/14 10:30:47;;;;;;;5.65;3.60;;;;;;;;;;4982494;28;20407;-86
2022/04/14 10:33:14;;;;;;;5.43;3.40;;;;;;;;;;4969354;28;20038;-84
2022/04/14 10:35:40;;;;;;;4.60;3.05;;;;;;;;;;4974018;28;20038;-84
2022/04/14 10:38:26;;;;;;;5.88;3.20;;;;;;;;;;4973883;28;20480;-84
2022/04/14 10:40:59;;;;;;;7.65;3.20;;;;;;;;;;4968376;28;20054;-83
2022/04/14 10:43:25;;;;;;;6.38;3.38;;;;;;;;;;4986806;28;20516;-82
2022/04/14 10:45:58;;;;;;;5.82;3.10;;;;;;;;;;4966877;28;20034;-84
2022/04/14 10:48:31;;;;;;;9.15;3.10;;;;;;;;;;4987907;28;20038;-85
2022/04/14 10:51:23;;;;;;;6.10;3.05;;;;;;;;;;4966852;28;20093;-86
2022/04/14 10:53:49;;;;;;;4.78;2.60;;;;;;;;;;4969760;28;20038;-83
2022/04/14 10:56:33;;;;;;;5.53;2.97;;;;;;;;;;4965491;28;20411;-83
2022/04/14 10:59:03;;;;;;;5.65;3.28;;;;;;;;;;4986644;28;20117;-84
2022/04/14 11:01:52;;;;;;;5.90;3.08;;;;;;;;;;4983592;28;20070;-84
2022/04/14 11:04:45;;;;;;;6.18;3.05;;;;;;;;;;4975220;28;20538;-86
2022/04/14 11:14:29;;;;;;;5.25;2.90;;;;;;;;;;4892889;29;20040;-86
2022/04/14 11:16:54;;;;;;;4.55;2.83;;;;;;;;;;4881854;29;20079;-87
2022/04/14 11:19:26;;;;;;;3.63;2.80;;;;;;;;;;4966864;28;20062;-88
2022/04/14 11:22:08;;;;;;;5.68;2.65;;;;;;;;;;4965405;28;20038;-88
2022/04/14 11:24:37;;;;;;;6.93;3.10;;;;;;;;;;4965926;28;20035;-88
2022/04/14 11:27:17;;;;;;;6.28;3.15;;;;;;;;;;4947947;28;20522;-86
2022/04/14 11:29:57;;;;;;;5.50;3.17;;;;;;;;;;4956628;28;20035;-85
2022/04/14 11:32:40;;;;;;;3.90;3.00;;;;;;;;;;4968503;28;20039;-86
2022/04/14 11:35:16;;;;;;;6.57;2.83;;;;;;;;;;4951430;28;20077;-85
2022/04/14 11:37:49;;;;;;;4.25;2.70;;;;;;;;;;4967833;28;20045;-85
2022/04/14 11:40:22;;;;;;;9.88;3.45;;;;;;;;;;4945301;28;20038;-85
2022/04/14 11:42:49;;;;;;;5.68;3.08;;;;;;;;;;4949625;28;20775;-85
2022/04/14 11:45:26;;;;;;;4.47;3.00;;;;;;;;;;4949596;28;20097;-84
2022/04/14 11:47:59;;;;;;;6.15;2.63;;;;;;;;;;4945235;28;20043;-87
2022/04/14 11:50:26;;;;;;;9.43;3.72;;;;;;;;;;4946657;28;20053;-84
2022/04/14 11:52:59;;;;;;;5.57;3.40;;;;;;;;;;4963225;28;20030;-81
2022/04/14 11:55:41;;;;;;;4.95;3.28;;;;;;;;;;4963727;28;20070;-84
2022/04/14 11:58:12;;;;;;;8.60;3.25;;;;;;;;;;4955262;28;20042;-85
2022/04/14 12:00:49;;;;;;;6.03;2.92;;;;;;;;;;4966347;28;20164;-84
2022/04/14 12:03:15;;;;;;;6.25;2.90;;;;;;;;;;4949389;28;20046;-83
2022/04/14 12:05:51;;;;;;;8.70;3.92;;;;;;;;;;4944099;28;20465;-85
2022/04/14 12:08:17;;;;;;;8.48;2.95;;;;;;;;;;4963842;28;20046;-85
2022/04/14 12:10:43;;;;;;;6.03;4.03;;;;;;;;;;4987546;28;20372;-84
2022/04/14 12:13:10;;;;;;;8.25;3.38;;;;;;;;;;4979958;28;20041;-85
2022/04/14 12:15:36;;;;;;;7.68;3.10;;;;;;;;;;4984233;28;20538;-86
2022/04/14 12:18:10;;;;;;;7.78;3.47;;;;;;;;;;4980372;28;20121;-85
2022/04/14 12:20:37;;;;;;;5.57;3.20;;;;;;;;;;4980020;28;20045;-86
2022/04/14 12:23:03;;;;;;;8.73;3.40;;;;;;;;;;4984616;28;20454;-86
2022/04/14 12:25:29;;;;;;;5.65;3.10;;;;;;;;;;4967246;28;20034;-85
2022/04/14 12:27:54;;;;;;;4.90;3.13;;;;;;;;;;4983821;28;20037;-86
2022/04/14 12:30:22;;;;;;;8.05;3.13;;;;;;;;;;4968397;28;20034;-86
2022/04/14 12:33:00;;;;;;;4.53;3.38;;;;;;;;;;4980566;28;20483;-87
2022/04/14 12:35:32;;;;;;;5.30;3.00;;;;;;;;;;4969172;28;20039;-87
2022/04/14 12:38:15;;;;;;;6.00;2.95;;;;;;;;;;4982650;28;20513;-86
2022/04/14 12:40:57;;;;;;;8.82;3.20;;;;;;;;;;4989138;28;20102;-82
2022/04/14 12:43:28;;;;;;;7.10;3.25;;;;;;;;;;4978017;28;20428;-83
2022/04/14 12:45:57;;;;;;;4.80;3.05;;;;;;;;;;4977608;28;20030;-85
2022/04/14 12:48:36;;;;;;;9.15;3.97;;;;;;;;;;4986202;28;20026;-84
2022/04/14 12:51:02;;;;;;;7.88;3.03;;;;;;;;;;4979897;28;20050;-85
2022/04/14 12:53:28;;;;;;;5.88;3.20;;;;;;;;;;4985443;28;20030;-85
2022/04/14 12:56:14;;;;;;;8.00;3.47;;;;;;;;;;4962069;28;20034;-83
2022/04/14 12:58:40;;;;;;;8.63;4.32;;;;;;;;;;4985336;28;20492;-84
2022/04/14 13:01:12;;;;;;;3.92;2.92;;;;;;;;;;4966904;28;20402;-86
2022/04/14 13:03:50;;;;;;;8.73;3.58;;;;;;;;;;4966345;28;20114;-84
2022/04/14 13:06:17;;;;;;;4.47;3.38;;;;;;;;;;4984101;28;20036;-84
2022/04/14 13:08:44;;;;;;;6.97;3.30;;;;;;;;;;4983035;28;20035;-84
2022/04/14 13:11:09;;;;;;;5.70;3.40;;;;;;;;;;4970649;28;20038;-84
2022/04/14 13:13:35;;;;;;;5.05;3.83;;;;;;;;;;4985132;28;20685;-83
2022/04/14 13:16:01;;;;;;;3.60;3.20;;;;;;;;;;4983469;28;20042;-86
2022/04/14 13:18:27;;;;;;;6.70;4.13;;;;;;;;;;4965499;28;20043;-84
2022/04/14 13:20:52;;;;;;;5.30;3.33;;;;;;;;;;4983423;28;20648;-84
2022/04/14 13:23:20;;;;;;;6.90;3.50;;;;;;;;;;4969218;28;20069;-83
2022/04/14 13:25:47;;;;;;;6.88;3.20;;;;;;;;;;4983651;28;20499;-83
2022/04/14 13:28:13;;;;;;;5.47;3.38;;;;;;;;;;4989072;28;20026;-83
2022/04/14 13:30:39;;;;;;;4.57;3.28;;;;;;;;;;4978584;28;20034;-83
2022/04/14 13:33:05;;;;;;;7.88;3.60;;;;;;;;;;4985018;28;20495;-84
2022/04/14 13:35:35;;;;;;;6.57;3.60;;;;;;;;;;4983478;28;20065;-85
2022/04/14 13:38:01;;;;;;;7.25;3.80;;;;;;;;;;4985325;28;20042;-86
2022/04/14 13:40:26;;;;;;;5.57;3.20;;;;;;;;;;4972694;28;20490;-85
2022/04/14 13:42:52;;;;;;;5.78;3.63;;;;;;;;;;4991082;28;20037;-84
2022/04/14 13:45:17;;;;;;;15.32;3.63;;;;;;;;;;4989532;28;20080;-85
2022/04/14 13:47:43;;;;;;;6.38;3.92;;;;;;;;;;4987078;28;20030;-86
2022/04/14 13:50:11;;;;;;;7.30;3.90;;;;;;;;;;4984714;28;20031;-85
2022/04/14 13:52:37;;;;;;;5.63;3.53;;;;;;;;;;4989176;28;20037;-83
2022/04/14 13:55:04;;;;;;;5.18;3.90;;;;;;;;;;4987124;28;20451;-85
2022/04/14 13:57:30;;;;;;;6.40;3.80;;;;;;;;;;4971883;28;20031;-85
2022/04/14 13:59:55;;;;;;;5.38;3.95;;;;;;;;;;4963156;28;20364;-83
2022/04/14 14:02:21;;;;;;;7.43;4.20;;;;;;;;;;4969552;28;20509;-85
2022/04/14 14:04:47;;;;;;;7.93;3.90;;;;;;;;;;4981981;28;20050;-84
2022/04/14 14:07:12;;;;;;;5.60;4.30;;;;;;;;;;4985897;28;20047;-84
2022/04/14 14:09:38;;;;;;;6.88;4.13;;;;;;;;;;4970618;28;20045;-84
2022/04/14 14:12:04;;;;;;;7.40;4.25;;;;;;;;;;4984512;28;20487;-84
2022/04/14 14:14:29;;;;;;;5.57;3.75;;;;;;;;;;4982161;28;20046;-86
2022/04/14 14:16:55;;;;;;;8.05;4.22;;;;;;;;;;4982337;28;20034;-83
2022/04/14 14:19:22;;;;;;;7.05;4.10;;;;;;;;;;4987664;28;20050;-82
2022/04/14 14:21:51;;;;;;;6.07;3.85;;;;;;;;;;4984725;28;20041;-85
2022/04/14 14:24:17;;;;;;;7.75;5.22;;;;;;;;;;4981570;28;20110;-83
2022/04/14 14:26:42;;;;;;;8.50;5.10;;;;;;;;;;4987988;28;20129;-87
2022/04/14 14:29:08;;;;;;;9.52;6.25;;;;;;;;;;4968935;28;20498;-86
2022/04/14 14:31:34;;;;;;;5.82;4.43;;;;;;;;;;4981431;28;20478;-85
2022/04/14 14:34:00;;;;;;;6.35;4.90;;;;;;;;;;4985027;28;20097;-82
2022/04/14 14:36:25;;;;;;;9.18;6.00;;;;;;;;;;4981463;28;20038;-88
2022/04/14 14:38:50;;;;;;;5.22;4.40;;;;;;;;;;4978178;28;20066;-87
2022/04/14 14:41:17;;;;;;;5.18;4.30;;;;;;;;;;4983089;28;20035;-85
2022/04/14 14:43:43;;;;;;;9.20;4.88;;;;;;;;;;4983861;28;20438;-84
2022/04/14 14:46:09;;;;;;;7.90;4.57;;;;;;;;;;4984000;28;20130;-88
2022/04/14 14:48:34;;;;;;;10.50;6.10;;;;;;;;;;4966980;28;20408;-88
2022/04/14 14:51:00;;;;;;;6.38;4.95;;;;;;;;;;4966670;28;20050;-88